createdAt,value
2019-04-07T00:00:28.574Z,-944.26
2019-04-07T00:01:29.049Z,-948.10
2019-04-07T00:02:29.254Z,-943.82
2019-04-07T00:03:29.635Z,-949.96
2019-04-07T00:04:30.617Z,-939.99
2019-04-07T00:05:30.318Z,-942.90
2019-04-07T00:06:30.727Z,-944.41
2019-04-07T00:07:31.080Z,-943.65
2019-04-07T00:08:31.533Z,-942.08
2019-04-07T00:09:32.061Z,-937.34
2019-04-07T00:10:32.132Z,-945.46
2019-04-07T00:11:32.524Z,-947.14
2019-04-07T00:12:32.864Z,-937.54
2019-04-07T00:13:33.689Z,-948.88
2019-04-07T00:14:33.614Z,-949.27
2019-04-07T00:15:34.468Z,-943.12
2019-04-07T00:16:34.443Z,-943.64
2019-04-07T00:17:34.669Z,-893.77
2019-04-07T00:18:35.036Z,-892.93
2019-04-07T00:19:35.391Z,-889.55
2019-04-07T00:20:36.310Z,-888.90
2019-04-07T00:21:36.427Z,-886.07
2019-04-07T00:22:36.789Z,-894.76
2019-04-07T00:23:36.841Z,-895.03
2019-04-07T00:24:37.252Z,-890.94
2019-04-07T00:25:37.526Z,-891.48
2019-04-07T00:26:37.903Z,-881.99
2019-04-07T00:27:38.230Z,-889.42
2019-04-07T00:28:38.626Z,-894.75
2019-04-07T00:29:39.499Z,-889.12
2019-04-07T00:30:39.909Z,-894.10
2019-04-07T00:31:39.841Z,-892.46
2019-04-07T00:32:40.073Z,-889.51
2019-04-07T00:33:40.407Z,-892.97
2019-04-07T00:34:41.457Z,-894.06
2019-04-07T00:35:41.135Z,-890.44
2019-04-07T00:36:41.975Z,-896.64
2019-04-07T00:37:41.879Z,-894.40
2019-04-07T00:38:42.258Z,-894.05
2019-04-07T00:39:42.594Z,-891.26
2019-04-07T00:40:42.994Z,-894.72
2019-04-07T00:41:43.397Z,-891.04
2019-04-07T00:42:43.686Z,-893.81
2019-04-07T00:43:44.570Z,-889.14
2019-04-07T00:44:45.477Z,-895.35
2019-04-07T00:45:44.784Z,-884.23
2019-04-07T00:46:45.148Z,-881.15
2019-04-07T00:47:46.101Z,-884.29
2019-04-07T00:48:45.889Z,-889.91
2019-04-07T00:49:46.573Z,-884.99
2019-04-07T00:50:46.987Z,-892.52
2019-04-07T00:51:47.465Z,-882.60
2019-04-07T00:52:47.315Z,-890.33
2019-04-07T00:53:47.681Z,-890.96
2019-04-07T00:54:48.032Z,-889.90
2019-04-07T00:55:48.493Z,-888.50
2019-04-07T00:56:49.074Z,-893.24
2019-04-07T00:57:49.189Z,-896.75
2019-04-07T00:58:49.959Z,-892.86
2019-04-07T00:59:50.557Z,-892.96
2019-04-07T01:00:50.510Z,-894.70
2019-04-07T01:01:50.536Z,-895.71
2019-04-07T01:02:50.910Z,-896.31
2019-04-07T01:03:51.276Z,-894.76
2019-04-07T01:04:51.820Z,-896.29
2019-04-07T01:05:52.177Z,-892.11
2019-04-07T01:06:52.686Z,-894.90
2019-04-07T01:07:52.701Z,-893.93
2019-04-07T01:08:53.654Z,-891.40
2019-04-07T01:09:53.418Z,-893.59
2019-04-07T01:10:53.755Z,-895.25
2019-04-07T01:11:54.116Z,-894.60
2019-04-07T01:12:54.485Z,-893.08
2019-04-07T01:13:55.472Z,-892.84
2019-04-07T01:14:55.395Z,-892.87
2019-04-07T01:15:56.058Z,-895.40
2019-04-07T01:16:56.177Z,-893.80
2019-04-07T01:17:56.280Z,-898.48
2019-04-07T01:18:56.948Z,-893.09
2019-04-07T01:19:57.043Z,-896.21
2019-04-07T01:20:57.379Z,-895.38
2019-04-07T01:21:57.758Z,-901.08
2019-04-07T01:22:58.199Z,-892.94
2019-04-07T01:23:59.048Z,-895.35
2019-04-07T01:24:59.349Z,-893.59
2019-04-07T01:25:59.177Z,-898.02
2019-04-07T01:27:00.168Z,-897.49
2019-04-07T01:27:59.919Z,-898.11
2019-04-07T01:29:00.288Z,-899.41
2019-04-07T01:30:00.769Z,-901.73
2019-04-07T01:31:01.126Z,-897.08
2019-04-07T01:32:01.385Z,-898.53
2019-04-07T01:33:02.187Z,-901.01
2019-04-07T01:34:02.153Z,-896.80
2019-04-07T01:35:02.520Z,-897.07
2019-04-07T01:36:02.834Z,-902.06
2019-04-07T01:37:03.525Z,-893.99
2019-04-07T01:38:03.570Z,-898.35
2019-04-07T01:39:04.067Z,-897.78
2019-04-07T01:40:04.500Z,-900.77
2019-04-07T01:41:04.788Z,-896.33
2019-04-07T01:42:05.075Z,-898.80
2019-04-07T01:43:05.375Z,-895.55
2019-04-07T01:44:06.014Z,-893.46
2019-04-07T01:45:06.139Z,-900.39
2019-04-07T01:46:06.448Z,-898.01
2019-04-07T01:47:06.878Z,-897.07
2019-04-07T01:48:07.228Z,-898.14
2019-04-07T01:49:09.343Z,-899.13
2019-04-07T01:50:07.898Z,-904.19
2019-04-07T01:51:08.273Z,-897.99
2019-04-07T01:52:08.607Z,-902.03
2019-04-07T01:53:09.001Z,-894.97
2019-04-07T01:54:10.108Z,-901.83
2019-04-07T01:55:10.133Z,-896.81
2019-04-07T01:56:10.765Z,-902.48
2019-04-07T01:57:10.408Z,-900.52
2019-04-07T01:58:10.833Z,-898.45
2019-04-07T01:59:11.961Z,-896.56
2019-04-07T02:00:11.504Z,-898.36
2019-04-07T02:01:12.038Z,-897.65
2019-04-07T02:02:12.532Z,-899.52
2019-04-07T02:03:12.593Z,-899.22
2019-04-07T02:04:13.067Z,-899.08
2019-04-07T02:05:13.439Z,-894.34
2019-04-07T02:06:13.679Z,-892.10
2019-04-07T02:07:14.027Z,-902.09
2019-04-07T02:08:14.538Z,-897.18
2019-04-07T02:09:14.754Z,-901.03
2019-04-07T02:10:15.186Z,-902.37
2019-04-07T02:11:15.488Z,-898.00
2019-04-07T02:12:15.945Z,-900.38
2019-04-07T02:13:16.480Z,-897.21
2019-04-07T02:14:16.552Z,-898.22
2019-04-07T02:15:17.397Z,-900.98
2019-04-07T02:16:17.273Z,-901.14
2019-04-07T02:17:17.615Z,-897.21
2019-04-07T02:18:18.000Z,-901.77
2019-04-07T02:19:19.014Z,-900.31
2019-04-07T02:20:18.990Z,-897.12
2019-04-07T02:21:19.660Z,-894.70
2019-04-07T02:22:20.075Z,-894.09
2019-04-07T02:23:19.788Z,-896.54
2019-04-07T02:24:20.282Z,-898.13
2019-04-07T02:25:20.708Z,-898.93
2019-04-07T02:26:21.472Z,-898.46
2019-04-07T02:27:21.200Z,-899.24
2019-04-07T02:28:21.845Z,-900.75
2019-04-07T02:29:21.981Z,-899.69
2019-04-07T02:30:22.297Z,-900.47
2019-04-07T02:31:23.472Z,-902.89
2019-04-07T02:32:23.006Z,-899.03
2019-04-07T02:33:24.260Z,-899.18
2019-04-07T02:34:23.745Z,-900.21
2019-04-07T02:35:24.622Z,-897.50
2019-04-07T02:36:27.446Z,-900.04
2019-04-07T02:37:26.609Z,-900.97
2019-04-07T02:38:25.406Z,-900.18
2019-04-07T02:39:25.557Z,-900.02
2019-04-07T02:40:26.743Z,-897.58
2019-04-07T02:41:27.417Z,-895.85
2019-04-07T02:42:26.695Z,-896.88
2019-04-07T02:43:27.415Z,-892.40
2019-04-07T02:44:27.393Z,-890.25
2019-04-07T02:45:28.287Z,-887.20
2019-04-07T02:46:28.053Z,-888.35
2019-04-07T02:47:28.392Z,-891.18
2019-04-07T02:48:28.777Z,-886.30
2019-04-07T02:49:29.174Z,-887.40
2019-04-07T02:50:30.184Z,-886.29
2019-04-07T02:51:29.899Z,-884.21
2019-04-07T02:52:30.497Z,-884.11
2019-04-07T02:53:30.780Z,-881.72
2019-04-07T02:54:30.976Z,-878.09
2019-04-07T02:55:31.292Z,-881.04
2019-04-07T02:56:32.492Z,-888.33
2019-04-07T02:57:32.054Z,-882.43
2019-04-07T02:58:32.698Z,-882.41
2019-04-07T02:59:33.457Z,-890.22
2019-04-07T03:00:33.168Z,-932.44
2019-04-07T03:01:33.519Z,-929.27
2019-04-07T03:02:34.598Z,-922.58
2019-04-07T03:03:34.366Z,-928.87
2019-04-07T03:04:34.576Z,-929.90
2019-04-07T03:05:34.892Z,-929.26
2019-04-07T03:06:42.701Z,-939.99
2019-04-07T03:07:36.620Z,-937.65
2019-04-07T03:08:35.981Z,-941.07
2019-04-07T03:09:36.549Z,-952.38
2019-04-07T03:10:36.722Z,-945.89
2019-04-07T03:11:37.328Z,-947.57
2019-04-07T03:12:37.658Z,-940.07
2019-04-07T03:13:38.128Z,-949.09
2019-04-07T03:14:39.149Z,-943.30
2019-04-07T03:15:38.803Z,-944.10
2019-04-07T03:16:39.461Z,-950.83
2019-04-07T03:17:39.240Z,-946.81
2019-04-07T03:18:39.709Z,-951.69
2019-04-07T03:19:39.979Z,-946.32
2019-04-07T03:20:40.345Z,-948.45
2019-04-07T03:21:40.666Z,-948.96
2019-04-07T03:22:41.876Z,-892.59
2019-04-07T03:23:41.577Z,-895.62
2019-04-07T03:24:42.306Z,-894.58
2019-04-07T03:25:42.264Z,-895.67
2019-04-07T03:26:42.659Z,-896.37
2019-04-07T03:27:42.827Z,-898.37
2019-04-07T03:28:43.854Z,-896.25
2019-04-07T03:29:43.582Z,-902.42
2019-04-07T03:30:45.076Z,-904.68
2019-04-07T03:31:45.869Z,-898.56
2019-04-07T03:32:45.820Z,-898.10
2019-04-07T03:33:45.985Z,-900.06
2019-04-07T03:34:46.643Z,-902.04
2019-04-07T03:35:47.409Z,-897.10
2019-04-07T03:37:12.850Z,-896.45
2019-04-07T03:37:48.368Z,-902.38
2019-04-07T03:38:46.777Z,-900.83
2019-04-07T03:39:47.188Z,-903.71
2019-04-07T03:40:48.140Z,-903.50
2019-04-07T03:41:47.890Z,-899.65
2019-04-07T03:42:48.258Z,-902.75
2019-04-07T03:43:49.439Z,-898.91
2019-04-07T03:44:49.126Z,-898.86
2019-04-07T03:45:49.874Z,-898.59
2019-04-07T03:46:49.801Z,-896.15
2019-04-07T03:47:50.430Z,-904.30
2019-04-07T03:48:50.873Z,-896.71
2019-04-07T03:49:50.933Z,-900.18
2019-04-07T03:50:51.145Z,-898.31
2019-04-07T03:51:51.632Z,-902.67
2019-04-07T03:52:51.891Z,-895.96
2019-04-07T03:53:52.255Z,-898.41
2019-04-07T03:54:52.754Z,-905.22
2019-04-07T03:55:53.426Z,-898.26
2019-04-07T03:56:53.353Z,-899.52
2019-04-07T03:57:54.798Z,-897.63
2019-04-07T03:58:54.091Z,-904.88
2019-04-07T03:59:55.442Z,-900.25
2019-04-07T04:00:55.115Z,-902.42
2019-04-07T04:01:55.156Z,-900.23
2019-04-07T04:02:55.534Z,-899.77
2019-04-07T04:03:56.646Z,-900.99
2019-04-07T04:04:56.281Z,-899.02
2019-04-07T04:05:57.215Z,-902.04
2019-04-07T04:06:56.983Z,-900.29
2019-04-07T04:07:57.432Z,-901.12
2019-04-07T04:08:58.542Z,-901.73
2019-04-07T04:09:58.271Z,-896.18
2019-04-07T04:10:58.367Z,-895.21
2019-04-07T04:11:58.752Z,-900.05
2019-04-07T04:12:59.127Z,-900.49
2019-04-07T04:13:59.476Z,-895.10
2019-04-07T04:15:00.158Z,-896.85
2019-04-07T04:16:00.870Z,-900.51
2019-04-07T04:17:00.525Z,-899.03
2019-04-07T04:18:01.135Z,-902.28
2019-04-07T04:19:02.366Z,-901.75
2019-04-07T04:20:01.745Z,-899.23
2019-04-07T04:21:01.979Z,-903.91
2019-04-07T04:22:02.346Z,-903.55
2019-04-07T04:23:02.700Z,-902.28
2019-04-07T04:24:04.067Z,-896.13
2019-04-07T04:25:03.486Z,-900.40
2019-04-07T04:26:04.342Z,-900.18
2019-04-07T04:27:04.558Z,-901.21
2019-04-07T04:28:04.947Z,-904.77
2019-04-07T04:29:05.634Z,-906.79
2019-04-07T04:30:05.267Z,-901.44
2019-04-07T04:31:06.625Z,-899.00
2019-04-07T04:32:06.015Z,-896.84
2019-04-07T04:33:06.451Z,-899.50
2019-04-07T04:34:06.753Z,-899.78
2019-04-07T04:35:07.093Z,-900.28
2019-04-07T04:36:08.094Z,-900.48
2019-04-07T04:37:08.044Z,-900.99
2019-04-07T04:38:08.213Z,-904.08
2019-04-07T04:39:08.504Z,-898.22
2019-04-07T04:40:09.311Z,-896.56
2019-04-07T04:41:10.052Z,-899.56
2019-04-07T04:42:10.341Z,-897.98
2019-04-07T04:43:10.383Z,-898.23
2019-04-07T04:44:10.300Z,-894.72
2019-04-07T04:45:10.698Z,-893.48
2019-04-07T04:46:12.162Z,-881.24
2019-04-07T04:47:12.273Z,-884.02
2019-04-07T04:48:11.969Z,-888.02
2019-04-07T04:49:12.497Z,-892.56
2019-04-07T04:50:12.836Z,-896.32
2019-04-07T04:51:13.075Z,-896.86
2019-04-07T04:52:13.605Z,-898.51
2019-04-07T04:53:13.570Z,-896.58
2019-04-07T04:54:14.485Z,-893.89
2019-04-07T04:55:14.293Z,-880.37
2019-04-07T04:56:14.685Z,-868.25
2019-04-07T04:57:15.046Z,-883.02
2019-04-07T04:58:15.408Z,-890.78
2019-04-07T04:59:15.717Z,-884.17
2019-04-07T05:00:16.083Z,-889.59
2019-04-07T05:01:16.447Z,-878.22
2019-04-07T05:02:17.080Z,-877.42
2019-04-07T05:03:17.988Z,-885.13
2019-04-07T05:04:17.738Z,-879.78
2019-04-07T05:05:18.156Z,-877.70
2019-04-07T05:06:18.352Z,-877.75
2019-04-07T05:07:18.967Z,-880.03
2019-04-07T05:08:18.983Z,-888.78
2019-04-07T05:09:20.033Z,-888.46
2019-04-07T05:10:19.719Z,-884.15
2019-04-07T05:11:20.079Z,-897.24
2019-04-07T05:12:20.931Z,-897.39
2019-04-07T05:13:21.371Z,-900.64
2019-04-07T05:14:21.979Z,-893.85
2019-04-07T05:15:21.533Z,-903.94
2019-04-07T05:16:21.887Z,-901.91
2019-04-07T05:17:22.228Z,-897.68
2019-04-07T05:18:22.703Z,-904.65
2019-04-07T05:19:23.684Z,-899.87
2019-04-07T05:20:23.950Z,-899.22
2019-04-07T05:21:23.991Z,-900.09
2019-04-07T05:22:24.130Z,-898.41
2019-04-07T05:23:24.387Z,-904.89
2019-04-07T05:24:24.783Z,-895.67
2019-04-07T05:25:25.123Z,-896.35
2019-04-07T05:26:25.587Z,-898.78
2019-04-07T05:27:25.827Z,-898.96
2019-04-07T05:28:26.619Z,-900.99
2019-04-07T05:29:26.522Z,-898.16
2019-04-07T05:30:27.030Z,-899.38
2019-04-07T05:31:27.263Z,-900.55
2019-04-07T05:32:27.625Z,-904.87
2019-04-07T05:33:27.999Z,-901.84
2019-04-07T05:34:28.349Z,-904.32
2019-04-07T05:35:28.703Z,-901.25
2019-04-07T05:36:29.074Z,-900.64
2019-04-07T05:37:29.554Z,-895.03
2019-04-07T05:38:30.246Z,-888.01
2019-04-07T05:39:30.858Z,-891.09
2019-04-07T05:40:31.047Z,-894.78
2019-04-07T05:41:31.221Z,-896.69
2019-04-07T05:42:31.227Z,-898.37
2019-04-07T05:43:31.608Z,-900.99
2019-04-07T05:44:32.238Z,-906.18
2019-04-07T05:45:33.572Z,-901.42
2019-04-07T05:46:33.509Z,-905.95
2019-04-07T05:47:33.133Z,-898.79
2019-04-07T05:48:33.756Z,-903.10
2019-04-07T05:49:33.747Z,-903.58
2019-04-07T05:50:34.883Z,-913.23
2019-04-07T05:51:34.488Z,-903.46
2019-04-07T05:52:37.838Z,-905.26
2019-04-07T05:53:35.212Z,-904.39
2019-04-07T05:54:36.142Z,-901.33
2019-04-07T05:55:36.079Z,-905.65
2019-04-07T05:56:36.827Z,-904.08
2019-04-07T05:57:36.610Z,-903.36
2019-04-07T05:58:38.373Z,-905.46
2019-04-07T05:59:37.644Z,-897.73
2019-04-07T06:00:38.397Z,-899.65
2019-04-07T06:01:38.105Z,-903.43
2019-04-07T06:02:38.434Z,-899.09
2019-04-07T06:03:41.204Z,-898.87
2019-04-07T06:04:39.408Z,-899.80
2019-04-07T06:05:40.005Z,-897.98
2019-04-07T06:06:41.527Z,-904.33
2019-04-07T06:07:40.245Z,-900.48
2019-04-07T06:08:41.101Z,-902.49
2019-04-07T06:09:41.445Z,-894.44
2019-04-07T06:10:41.376Z,-899.65
2019-04-07T06:11:41.749Z,-905.94
2019-04-07T06:12:44.941Z,-901.08
2019-04-07T06:13:43.881Z,-900.48
2019-04-07T06:14:45.887Z,-906.57
2019-04-07T06:15:43.129Z,-907.42
2019-04-07T06:16:43.584Z,-904.51
2019-04-07T06:17:43.852Z,-902.00
2019-04-07T06:18:44.474Z,-907.60
2019-04-07T06:19:44.633Z,-904.62
2019-04-07T06:20:46.374Z,-904.67
2019-04-07T06:21:46.880Z,-908.70
2019-04-07T06:22:46.828Z,-906.73
2019-04-07T06:23:46.058Z,-906.11
2019-04-07T06:24:47.109Z,-902.82
2019-04-07T06:25:46.803Z,-904.71
2019-04-07T06:26:48.123Z,-908.80
2019-04-07T06:27:47.758Z,-903.57
2019-04-07T06:28:51.161Z,-903.62
2019-04-07T06:29:48.880Z,-905.57
2019-04-07T06:30:48.696Z,-901.03
2019-04-07T06:31:49.494Z,-902.36
2019-04-07T06:32:49.327Z,-904.21
2019-04-07T06:33:49.871Z,-902.50
2019-04-07T06:34:50.679Z,-905.13
2019-04-07T06:35:53.104Z,-902.72
2019-04-07T06:36:53.594Z,-904.76
2019-04-07T06:37:51.954Z,-903.71
2019-04-07T06:38:52.614Z,-899.97
2019-04-07T06:39:52.473Z,-901.61
2019-04-07T06:40:54.227Z,-896.60
2019-04-07T06:41:52.575Z,-900.29
2019-04-07T06:42:53.316Z,-903.99
2019-04-07T06:43:54.202Z,-901.29
2019-04-07T06:44:55.382Z,-899.74
2019-04-07T06:45:54.882Z,-903.49
2019-04-07T06:46:57.664Z,-903.33
2019-04-07T06:47:55.205Z,-902.71
2019-04-07T06:48:55.152Z,-896.97
2019-04-07T06:49:55.450Z,-901.75
2019-04-07T06:50:58.913Z,-898.73
2019-04-07T06:51:56.171Z,-899.98
2019-04-07T06:52:56.641Z,-897.11
2019-04-07T06:53:56.966Z,-899.79
2019-04-07T06:54:57.233Z,-903.66
2019-04-07T06:55:59.448Z,-895.00
2019-04-07T06:56:57.959Z,-899.73
2019-04-07T06:57:58.325Z,-900.07
2019-04-07T06:58:59.162Z,-897.10
2019-04-07T06:59:59.019Z,-895.61
2019-04-07T07:01:02.155Z,-899.89
2019-04-07T07:01:59.863Z,-897.69
2019-04-07T07:03:02.917Z,-900.01
2019-04-07T07:04:00.484Z,-902.85
2019-04-07T07:05:00.835Z,-897.20
2019-04-07T07:06:01.333Z,-895.24
2019-04-07T07:07:02.331Z,-895.62
2019-04-07T07:08:02.002Z,-893.84
2019-04-07T07:09:02.941Z,-895.79
2019-04-07T07:10:03.269Z,-892.85
2019-04-07T07:11:03.088Z,-899.87
2019-04-07T07:12:03.950Z,-896.64
2019-04-07T07:13:07.599Z,-896.50
2019-04-07T07:14:05.064Z,-894.71
2019-04-07T07:15:04.628Z,-892.39
2019-04-07T07:16:07.960Z,-890.56
2019-04-07T07:17:06.324Z,-890.48
2019-04-07T07:18:05.632Z,-887.33
2019-04-07T07:19:06.351Z,-891.71
2019-04-07T07:20:06.737Z,-897.80
2019-04-07T07:21:06.874Z,-892.28
2019-04-07T07:22:10.039Z,-894.64
2019-04-07T07:23:09.912Z,-893.79
2019-04-07T07:24:07.710Z,-889.46
2019-04-07T07:25:10.245Z,-896.93
2019-04-07T07:26:09.086Z,-895.25
2019-04-07T07:27:10.313Z,-897.14
2019-04-07T07:28:11.436Z,-890.55
2019-04-07T07:29:09.499Z,-892.64
2019-04-07T07:30:10.594Z,-897.73
2019-04-07T07:31:10.239Z,-893.84
2019-04-07T07:32:10.571Z,-894.69
2019-04-07T07:33:11.168Z,-891.47
2019-04-07T07:34:11.815Z,-898.41
2019-04-07T07:35:13.659Z,-895.01
2019-04-07T07:36:12.389Z,-893.12
2019-04-07T07:37:12.667Z,-893.79
2019-04-07T07:38:12.788Z,-893.87
2019-04-07T07:39:13.879Z,-883.96
2019-04-07T07:40:15.449Z,-896.58
2019-04-07T07:41:14.085Z,-891.88
2019-04-07T07:42:14.737Z,-891.51
2019-04-07T07:43:14.797Z,-895.39
2019-04-07T07:44:15.543Z,-892.23
2019-04-07T07:45:15.559Z,-890.78
2019-04-07T07:46:17.849Z,-892.09
2019-04-07T07:47:17.618Z,-894.55
2019-04-07T07:48:16.412Z,-889.32
2019-04-07T07:49:16.846Z,-892.04
2019-04-07T07:50:17.845Z,-893.58
2019-04-07T07:51:17.543Z,-889.76
2019-04-07T07:52:20.439Z,-891.36
2019-04-07T07:53:19.170Z,-887.15
2019-04-07T07:54:18.510Z,-889.27
2019-04-07T07:55:19.683Z,-893.63
2019-04-07T07:56:19.286Z,-895.63
2019-04-07T07:57:21.915Z,-894.40
2019-04-07T07:58:20.351Z,-892.08
2019-04-07T07:59:20.424Z,-888.36
2019-04-07T08:00:21.022Z,-894.90
2019-04-07T08:01:21.121Z,-894.16
2019-04-07T08:02:21.916Z,-892.30
2019-04-07T08:03:22.903Z,-885.57
2019-04-07T08:04:24.897Z,-892.64
2019-04-07T08:05:22.810Z,-894.86
2019-04-07T08:06:22.862Z,-901.38
2019-04-07T08:07:23.632Z,-898.83
2019-04-07T08:08:23.586Z,-902.00
2019-04-07T08:09:25.885Z,-894.30
2019-04-07T08:10:25.077Z,-888.86
2019-04-07T08:11:25.031Z,-892.42
2019-04-07T08:12:25.499Z,-893.61
2019-04-07T08:13:25.813Z,-899.99
2019-04-07T08:14:26.021Z,-889.65
2019-04-07T08:15:29.182Z,-894.30
2019-04-07T08:16:30.331Z,-894.08
2019-04-07T08:17:27.083Z,-889.90
2019-04-07T08:18:27.191Z,-941.33
2019-04-07T08:19:29.379Z,-947.55
2019-04-07T08:20:28.535Z,-940.52
2019-04-07T08:21:29.089Z,-946.23
2019-04-07T08:22:32.502Z,-948.72
2019-04-07T08:23:30.724Z,-947.79
2019-04-07T08:24:29.447Z,-946.37
2019-04-07T08:25:30.248Z,-952.64
2019-04-07T08:26:30.115Z,-948.98
2019-04-07T08:27:31.967Z,-950.42
2019-04-07T08:28:33.486Z,-948.67
2019-04-07T08:29:31.166Z,-943.08
2019-04-07T08:30:31.785Z,-953.96
2019-04-07T08:31:32.628Z,-951.41
2019-04-07T08:32:33.187Z,-957.28
2019-04-07T08:33:33.184Z,-952.20
2019-04-07T08:34:33.102Z,-949.89
2019-04-07T08:35:35.679Z,-954.14
2019-04-07T08:36:34.773Z,-948.49
2019-04-07T08:37:34.182Z,-950.92
2019-04-07T08:38:34.431Z,-945.68
2019-04-07T08:39:35.480Z,-952.48
2019-04-07T08:40:36.472Z,-949.85
2019-04-07T08:41:39.162Z,-941.54
2019-04-07T08:42:36.942Z,-943.48
2019-04-07T08:43:36.275Z,-940.78
2019-04-07T08:44:36.733Z,-946.55
2019-04-07T08:45:37.111Z,-950.42
2019-04-07T08:46:40.124Z,-944.09
2019-04-07T08:47:38.093Z,-931.06
2019-04-07T08:48:38.743Z,-939.06
2019-04-07T08:49:38.359Z,-933.03
2019-04-07T08:50:38.710Z,-941.07
2019-04-07T08:51:39.421Z,-941.81
2019-04-07T08:52:41.935Z,-940.65
2019-04-07T08:53:43.449Z,-938.86
2019-04-07T08:54:40.182Z,-944.21
2019-04-07T08:55:40.634Z,-945.36
2019-04-07T08:56:40.937Z,-954.61
2019-04-07T08:57:41.352Z,-942.51
2019-04-07T08:58:42.475Z,-934.51
2019-04-07T08:59:43.032Z,-953.64
2019-04-07T09:00:42.675Z,-949.42
2019-04-07T09:01:43.439Z,-952.89
2019-04-07T09:02:43.770Z,-958.06
2019-04-07T09:03:43.903Z,-936.87
2019-04-07T09:04:44.371Z,-949.10
2019-04-07T09:05:44.441Z,-950.95
2019-04-07T09:06:44.944Z,-944.49
2019-04-07T09:07:44.858Z,-956.20
2019-04-07T09:08:46.105Z,-954.17
2019-04-07T09:09:47.411Z,-947.92
2019-04-07T09:10:49.053Z,-935.88
2019-04-07T09:11:46.985Z,-951.10
2019-04-07T09:12:46.673Z,-943.77
2019-04-07T09:13:47.573Z,-951.44
2019-04-07T09:14:47.392Z,-948.26
2019-04-07T09:15:48.839Z,-939.26
2019-04-07T09:16:51.825Z,-913.93
2019-04-07T09:17:48.691Z,-926.84
2019-04-07T09:18:54.322Z,-944.13
2019-04-07T09:19:50.840Z,-947.93
2019-04-07T09:20:49.576Z,-944.84
2019-04-07T09:21:51.640Z,-947.49
2019-04-07T09:22:52.384Z,-942.98
2019-04-07T09:23:50.742Z,-936.02
2019-04-07T09:24:50.988Z,-948.64
2019-04-07T09:25:51.362Z,-944.00
2019-04-07T09:26:52.381Z,-945.96
2019-04-07T09:27:52.274Z,-948.53
2019-04-07T09:28:53.980Z,-944.48
2019-04-07T09:29:53.408Z,-946.09
2019-04-07T09:30:53.653Z,-947.68
2019-04-07T09:31:54.072Z,-937.92
2019-04-07T09:32:54.581Z,-947.20
2019-04-07T09:33:55.004Z,-967.10
2019-04-07T09:34:56.078Z,-946.91
2019-04-07T09:35:56.680Z,-941.15
2019-04-07T09:36:55.670Z,-954.62
2019-04-07T09:37:55.951Z,-951.85
2019-04-07T09:38:57.996Z,-951.00
2019-04-07T09:40:00.793Z,-953.84
2019-04-07T09:40:58.409Z,-937.40
2019-04-07T09:41:57.264Z,-949.07
2019-04-07T09:42:59.264Z,-947.90
2019-04-07T09:44:01.049Z,-952.01
2019-04-07T09:44:58.574Z,-946.33
2019-04-07T09:45:59.395Z,-949.51
2019-04-07T09:46:59.594Z,-958.80
2019-04-07T09:47:59.856Z,-939.95
2019-04-07T09:48:59.942Z,-943.31
2019-04-07T09:50:00.479Z,-939.79
2019-04-07T09:51:03.994Z,-939.00
2019-04-07T09:52:02.506Z,-968.81
2019-04-07T09:53:01.125Z,-943.91
2019-04-07T09:54:01.501Z,-959.30
2019-04-07T09:55:01.944Z,-956.12
2019-04-07T09:56:02.730Z,-935.29
2019-04-07T09:57:05.662Z,-949.81
2019-04-07T09:58:02.919Z,-927.54
2019-04-07T09:59:03.579Z,-941.27
2019-04-07T10:00:03.690Z,-951.97
2019-04-07T10:01:06.122Z,-942.79
2019-04-07T10:02:05.889Z,-886.53
2019-04-07T10:03:07.805Z,-900.96
2019-04-07T10:04:07.081Z,-879.41
2019-04-07T10:05:05.466Z,-892.80
2019-04-07T10:06:09.807Z,-884.11
2019-04-07T10:07:09.087Z,-887.45
2019-04-07T10:08:07.308Z,-883.42
2019-04-07T10:09:06.900Z,-879.41
2019-04-07T10:10:12.441Z,-883.66
2019-04-07T10:11:08.661Z,-878.10
2019-04-07T10:12:08.192Z,-885.49
2019-04-07T10:13:08.353Z,-883.44
2019-04-07T10:14:08.717Z,-872.39
2019-04-07T10:15:11.601Z,-887.94
2019-04-07T10:16:10.656Z,-882.01
2019-04-07T10:17:10.725Z,-882.70
2019-04-07T10:18:10.223Z,-903.65
2019-04-07T10:19:10.954Z,-891.24
2019-04-07T10:20:11.223Z,-895.17
2019-04-07T10:21:11.250Z,-901.71
2019-04-07T10:22:12.338Z,-899.24
2019-04-07T10:23:11.972Z,-888.22
2019-04-07T10:24:13.009Z,-881.02
2019-04-07T10:25:12.702Z,-900.77
2019-04-07T10:26:13.103Z,-895.62
2019-04-07T10:27:13.472Z,-854.56
2019-04-07T10:28:13.890Z,-931.67
2019-04-07T10:29:14.135Z,-907.77
2019-04-07T10:30:14.666Z,-886.38
2019-04-07T10:31:18.356Z,-895.41
2019-04-07T10:32:15.246Z,-904.55
2019-04-07T10:33:15.749Z,-871.39
2019-04-07T10:34:16.194Z,-889.19
2019-04-07T10:35:16.803Z,-900.93
2019-04-07T10:36:16.710Z,-894.56
2019-04-07T10:37:17.023Z,-882.32
2019-04-07T10:38:17.402Z,-886.24
2019-04-07T10:39:18.607Z,-894.32
2019-04-07T10:40:20.928Z,-883.06
2019-04-07T10:41:18.483Z,-878.09
2019-04-07T10:42:19.113Z,-906.97
2019-04-07T10:43:19.610Z,-877.98
2019-04-07T10:44:19.615Z,-898.39
2019-04-07T10:45:20.659Z,-893.77
2019-04-07T10:46:20.373Z,-879.69
2019-04-07T10:47:21.193Z,-893.34
2019-04-07T10:48:21.012Z,-873.84
2019-04-07T10:49:21.373Z,-887.46
2019-04-07T10:50:22.160Z,-814.63
2019-04-07T10:51:22.954Z,-824.79
2019-04-07T10:52:22.468Z,-818.31
2019-04-07T10:53:22.912Z,-837.29
2019-04-07T10:54:23.397Z,-854.40
2019-04-07T10:55:24.155Z,-858.36
2019-04-07T10:56:24.264Z,-876.79
2019-04-07T10:57:24.250Z,-868.03
2019-04-07T10:58:24.807Z,-856.62
2019-04-07T10:59:25.603Z,-894.05
2019-04-07T11:00:25.815Z,-886.67
2019-04-07T11:01:25.775Z,-883.97
2019-04-07T11:02:26.860Z,-868.98
2019-04-07T11:03:26.445Z,-885.71
2019-04-07T11:04:27.326Z,-877.71
2019-04-07T11:05:27.911Z,-881.41
2019-04-07T11:06:28.309Z,-882.38
2019-04-07T11:07:28.201Z,-867.55
2019-04-07T11:08:28.737Z,-881.26
2019-04-07T11:09:28.680Z,-877.76
2019-04-07T11:10:34.482Z,-884.77
2019-04-07T11:11:30.383Z,-888.06
2019-04-07T11:12:30.330Z,-878.26
2019-04-07T11:13:30.780Z,-885.38
2019-04-07T11:14:30.400Z,-884.46
2019-04-07T11:15:30.781Z,-882.62
2019-04-07T11:16:31.289Z,-866.37
2019-04-07T11:17:31.605Z,-874.29
2019-04-07T11:18:32.504Z,-868.81
2019-04-07T11:19:32.287Z,-889.90
2019-04-07T11:20:32.567Z,-876.86
2019-04-07T11:21:33.755Z,-853.55
2019-04-07T11:22:36.014Z,-872.60
2019-04-07T11:23:33.622Z,-883.60
2019-04-07T11:24:35.072Z,-862.37
2019-04-07T11:25:34.683Z,-888.10
2019-04-07T11:26:35.280Z,-898.50
2019-04-07T11:27:35.399Z,-886.57
2019-04-07T11:28:35.444Z,-863.84
2019-04-07T11:29:37.633Z,-880.65
2019-04-07T11:30:36.182Z,-902.11
2019-04-07T11:31:36.913Z,-865.89
2019-04-07T11:32:36.960Z,-875.34
2019-04-07T11:33:37.980Z,-862.22
2019-04-07T11:34:37.686Z,-860.30
2019-04-07T11:35:37.961Z,-899.33
2019-04-07T11:36:38.551Z,-863.44
2019-04-07T11:37:38.712Z,-860.99
2019-04-07T11:38:39.079Z,-877.68
2019-04-07T11:39:39.389Z,-876.59
2019-04-07T11:40:45.780Z,-883.26
2019-04-07T11:41:41.310Z,-890.70
2019-04-07T11:42:41.540Z,-891.20
2019-04-07T11:43:40.919Z,-875.68
2019-04-07T11:44:41.244Z,-881.35
2019-04-07T11:45:52.867Z,-870.80
2019-04-07T11:46:43.182Z,-859.77
2019-04-07T11:47:42.734Z,-863.93
2019-04-07T11:48:43.235Z,-865.29
2019-04-07T11:49:44.637Z,-859.56
2019-04-07T11:50:43.423Z,-871.40
2019-04-07T11:51:44.252Z,-862.54
2019-04-07T11:52:44.122Z,-890.30
2019-04-07T11:53:44.479Z,-871.34
2019-04-07T11:54:44.972Z,-888.01
2019-04-07T11:55:45.423Z,-904.79
2019-04-07T11:56:46.025Z,-886.88
2019-04-07T11:57:45.940Z,-874.02
2019-04-07T11:58:46.380Z,-886.49
2019-04-07T11:59:46.614Z,-865.81
2019-04-07T12:00:47.352Z,-874.30
2019-04-07T12:01:47.955Z,-864.80
2019-04-07T12:02:49.246Z,-854.39
2019-04-07T12:03:48.107Z,-871.57
2019-04-07T12:04:48.892Z,-886.47
2019-04-07T12:05:49.527Z,-869.49
2019-04-07T12:06:49.796Z,-865.29
2019-04-07T12:07:52.955Z,-872.78
2019-04-07T12:08:51.122Z,-881.33
2019-04-07T12:09:50.967Z,-859.91